Aksu Airport


Codes: ZWAK/AKU
Name: Aksu Airport
City: Aksu
Country: China
Elevation: 0 ft.
Wikipedia:

Photos at Aksu Airport


   Photos courtesy of SpottingLog. You can add your own sightings and photos by signing up for a free trial today.



No photos found.

Weather at Aksu Airport


Time (UTC)DescriptionTempratureWindCloud coverageVisibilityPressureHumidity
21-Feb-2024 03:00Broken Clouds-5°C2 mph, SE71%10000m1028hPa32%
21-Feb-2024 06:00Scattered Clouds-3°C4 mph, SE45%10000m1028hPa26%
21-Feb-2024 09:00Clear Sky-1°C4 mph, SE1%10000m1026hPa22%
21-Feb-2024 12:00Clear Sky-1°C4 mph, SE1%10000m1027hPa28%
21-Feb-2024 15:00Clear Sky-3°C7 mph, SE2%10000m1029hPa35%
21-Feb-2024 18:00Clear Sky-4°C4 mph, SE4%10000m1030hPa40%
21-Feb-2024 21:00Clear Sky-5°C2 mph, E9%10000m1030hPa44%
22-Feb-2024 00:00Few Clouds-5°C2 mph, E13%10000m1031hPa46%
22-Feb-2024 03:00Overcast Clouds-4°C2 mph, SE100%10000m1032hPa40%
22-Feb-2024 06:00Overcast Clouds-2°C2 mph, SW100%10000m1030hPa34%
22-Feb-2024 09:00Overcast Clouds-1°C4 mph, S100%10000m1029hPa31%
22-Feb-2024 12:00Overcast Clouds-1°C4 mph, S100%10000m1029hPa35%
22-Feb-2024 15:00Overcast Clouds-2°C2 mph, SW100%10000m1032hPa38%
22-Feb-2024 18:00Overcast Clouds-3°C2 mph, S100%10000m1032hPa40%
22-Feb-2024 21:00Broken Clouds-4°C2 mph, S65%10000m1032hPa43%
23-Feb-2024 00:00Scattered Clouds-5°C2 mph, S44%10000m1032hPa45%
23-Feb-2024 03:00Few Clouds-3°C2 mph, SE16%10000m1033hPa39%
23-Feb-2024 06:00Few Clouds-0°C2 mph, S19%10000m1031hPa32%
23-Feb-2024 09:00Scattered Clouds1°C2 mph, S35%10000m1028hPa30%
23-Feb-2024 12:00Broken Clouds0°C4 mph, SE66%10000m1028hPa36%
23-Feb-2024 15:00Overcast Clouds-1°C4 mph, SE100%10000m1029hPa44%
23-Feb-2024 18:00Overcast Clouds-2°C4 mph, E100%10000m1029hPa48%
23-Feb-2024 21:00Overcast Clouds-2°C4 mph, E100%10000m1029hPa50%
24-Feb-2024 00:00Overcast Clouds-3°C4 mph, E100%10000m1028hPa51%
24-Feb-2024 03:00Broken Clouds-2°C4 mph, E56%10000m1029hPa45%
24-Feb-2024 06:00Broken Clouds0°C4 mph, SE77%10000m1028hPa37%
24-Feb-2024 09:00Overcast Clouds2°C2 mph, SE97%10000m1025hPa36%
24-Feb-2024 12:00Overcast Clouds1°C4 mph, SE99%10000m1025hPa40%
24-Feb-2024 15:00Overcast Clouds-0°C7 mph, E100%10000m1027hPa45%
24-Feb-2024 18:00Overcast Clouds-1°C7 mph, E100%10000m1027hPa49%
24-Feb-2024 21:00Overcast Clouds-1°C4 mph, E100%10000m1027hPa51%
25-Feb-2024 00:00Overcast Clouds-2°C4 mph, E100%10000m1027hPa53%
25-Feb-2024 03:00Overcast Clouds-1°C4 mph, E99%10000m1028hPa47%
25-Feb-2024 06:00Overcast Clouds2°C4 mph, S94%10000m1027hPa43%
25-Feb-2024 09:00Broken Clouds3°C2 mph, S81%10000m1025hPa39%
25-Feb-2024 12:00Broken Clouds3°C4 mph, E82%10000m1025hPa42%
25-Feb-2024 15:00Broken Clouds1°C7 mph, NE62%10000m1028hPa51%
25-Feb-2024 18:00Broken Clouds0°C7 mph, E79%10000m1029hPa52%
25-Feb-2024 21:00Overcast Clouds-1°C4 mph, NE92%10000m1028hPa57%
26-Feb-2024 00:00Broken Clouds-2°C4 mph, NE64%10000m1028hPa57%